Time,TemperatureF,DewpointF,PressureIn,WindDirection,WindDirectionDegrees,WindSpeedMPH,WindSpeedGustMPH,Humidity,HourlyPrecipIn,Conditions,Clouds,dailyrainin,SoftwareType,DateUTC
2013-04-21 00:09:00,38.3,22.2,30.37,NW,315,0.0,0.0,52,0.00,,,0.00,WUHU21623XXSP,2013-04-21 04:09:00,
2013-04-21 00:19:00,38.3,22.2,30.37,NW,315,0.0,0.0,52,0.00,,,0.00,WUHU21623XXSP,2013-04-21 04:19:00,
2013-04-21 00:29:00,37.9,22.3,30.37,NW,315,0.0,0.0,53,0.00,,,0.00,WUHU21623XXSP,2013-04-21 04:29:00,
2013-04-21 00:39:00,37.9,22.3,30.37,NW,315,0.0,0.0,53,0.00,,,0.00,WUHU21623XXSP,2013-04-21 04:39:00,
2013-04-21 01:03:00,37.2,22.5,30.37,NW,315,0.0,0.0,55,0.00,,,0.00,WUHU21623XXSP,2013-04-21 05:03:00,
2013-04-21 01:13:00,36.7,22.9,30.38,NW,315,0.0,0.0,57,0.00,,,0.00,WUHU21623XXSP,2013-04-21 05:13:00,
2013-04-21 01:23:00,36.5,22.7,30.38,NW,315,0.0,0.0,57,0.00,,,0.00,WUHU21623XXSP,2013-04-21 05:23:00,
2013-04-21 01:33:00,36.5,22.7,30.39,NW,315,0.0,0.0,57,0.00,,,0.00,WUHU21623XXSP,2013-04-21 05:33:00,
2013-04-21 01:43:00,36.5,22.7,30.39,NW,315,0.0,0.0,57,0.00,,,0.00,WUHU21623XXSP,2013-04-21 05:43:00,
2013-04-21 02:10:00,34.7,23.4,30.39,NW,315,0.0,0.0,63,0.00,,,0.00,WUHU21623XXSP,2013-04-21 06:10:00,
2013-04-21 02:20:00,34.7,23.4,30.40,NW,315,0.0,0.0,63,0.00,,,0.00,WUHU21623XXSP,2013-04-21 06:20:00,
2013-04-21 02:30:00,34.3,23.4,30.40,NW,315,0.0,0.0,64,0.00,,,0.00,WUHU21623XXSP,2013-04-21 06:30:00,
2013-04-21 02:40:00,34.2,23.5,30.40,NW,315,0.0,0.0,65,0.00,,,0.00,WUHU21623XXSP,2013-04-21 06:40:00,
2013-04-21 02:50:00,33.4,23.6,30.40,NW,315,0.0,0.0,67,0.00,,,0.00,WUHU21623XXSP,2013-04-21 06:50:00,
2013-04-21 03:00:00,32.9,23.4,30.40,NW,315,0.0,0.0,68,0.00,,,0.00,WUHU21623XXSP,2013-04-21 07:00:00,
2013-04-21 03:10:00,32.9,23.4,30.41,NW,315,0.0,0.0,68,0.00,,,0.00,WUHU21623XXSP,2013-04-21 07:10:00,
2013-04-21 03:20:00,32.5,23.8,30.41,NW,315,0.0,0.0,70,0.00,,,0.00,WUHU21623XXSP,2013-04-21 07:20:00,
2013-04-21 03:30:00,32.7,24.0,30.42,NW,315,0.0,0.0,70,0.00,,,0.00,WUHU21623XXSP,2013-04-21 07:30:00,
2013-04-21 03:40:00,32.5,23.8,30.42,NW,315,0.0,0.0,69,0.00,,,0.00,WUHU21623XXSP,2013-04-21 07:40:00,
2013-04-21 03:50:00,32.7,23.5,30.42,NW,315,0.0,0.0,69,0.00,,,0.00,WUHU21623XXSP,2013-04-21 07:50:00,
2013-04-21 04:00:00,32.5,23.5,30.42,NW,315,0.0,0.0,69,0.00,,,0.00,WUHU21623XXSP,2013-04-21 08:00:00,
2013-04-21 04:10:00,32.4,23.7,30.42,NW,315,0.0,0.0,70,0.00,,,0.00,WUHU21623XXSP,2013-04-21 08:10:00,
2013-04-21 04:20:00,31.8,23.2,30.43,NW,315,0.0,0.0,70,0.00,,,0.00,WUHU21623XXSP,2013-04-21 08:20:00,
2013-04-21 04:30:00,31.8,23.5,30.43,NW,315,0.0,0.0,71,0.00,,,0.00,WUHU21623XXSP,2013-04-21 08:30:00,
2013-04-21 04:40:00,31.8,23.5,30.43,NW,315,0.0,0.0,71,0.00,,,0.00,WUHU21623XXSP,2013-04-21 08:40:00,
2013-04-21 04:51:00,31.8,23.8,30.44,NW,315,0.0,0.0,72,0.00,,,0.00,WUHU21623XXSP,2013-04-21 08:51:00,
2013-04-21 05:01:00,31.6,23.6,30.44,NW,315,0.0,0.0,72,0.00,,,0.00,WUHU21623XXSP,2013-04-21 09:01:00,
2013-04-21 05:11:00,31.3,23.6,30.44,NW,315,0.0,0.0,73,0.00,,,0.00,WUHU21623XXSP,2013-04-21 09:11:00,
2013-04-21 05:21:00,31.3,23.9,30.44,NW,315,0.0,0.0,74,0.00,,,0.00,WUHU21623XXSP,2013-04-21 09:21:00,
2013-04-21 05:31:00,31.1,23.8,30.45,NW,315,0.0,0.0,74,0.00,,,0.00,WUHU21623XXSP,2013-04-21 09:31:00,
2013-04-21 05:41:00,30.7,23.7,30.45,NW,315,0.0,0.0,75,0.00,,,0.00,WUHU21623XXSP,2013-04-21 09:41:00,
2013-04-21 05:51:00,30.4,23.5,30.45,NW,315,0.0,0.0,75,0.00,,,0.00,WUHU21623XXSP,2013-04-21 09:51:00,
2013-04-21 06:01:00,30.4,23.7,30.46,NW,315,0.0,0.0,76,0.00,,,0.00,WUHU21623XXSP,2013-04-21 10:01:00,
2013-04-21 06:11:00,30.0,23.3,30.46,NW,315,0.0,0.0,76,0.00,,,0.00,WUHU21623XXSP,2013-04-21 10:11:00,
2013-04-21 06:21:00,29.8,23.8,30.47,NW,315,0.0,0.0,78,0.00,,,0.00,WUHU21623XXSP,2013-04-21 10:21:00,
2013-04-21 06:31:00,29.8,23.5,30.47,NW,315,0.0,0.0,77,0.00,,,0.00,WUHU21623XXSP,2013-04-21 10:31:00,
2013-04-21 06:41:00,29.8,23.8,30.48,NW,315,0.0,0.0,78,0.00,,,0.00,WUHU21623XXSP,2013-04-21 10:41:00,
2013-04-21 06:51:00,29.8,23.8,30.49,NW,315,0.0,0.0,78,0.00,,,0.00,WUHU21623XXSP,2013-04-21 10:51:00,
2013-04-21 07:01:00,29.7,23.9,30.49,NW,315,0.0,0.0,79,0.00,,,0.00,WUHU21623XXSP,2013-04-21 11:01:00,
2013-04-21 07:11:00,30.2,24.5,30.50,NW,315,0.0,0.0,79,0.00,,,0.00,WUHU21623XXSP,2013-04-21 11:11:00,
2013-04-21 07:21:00,30.9,25.0,30.50,NW,315,0.0,0.0,78,0.00,,,0.00,WUHU21623XXSP,2013-04-21 11:21:00,
2013-04-21 07:31:00,31.8,25.4,30.50,NW,315,0.0,0.0,77,0.00,,,0.00,WUHU21623XXSP,2013-04-21 11:31:00,
2013-04-21 07:40:00,32.4,25.5,30.51,NW,315,0.0,0.0,75,0.00,,,0.00,WUHU21623XXSP,2013-04-21 11:40:00,
2013-04-21 07:50:00,32.5,25.5,30.51,NW,315,0.0,0.0,75,0.00,,,0.00,WUHU21623XXSP,2013-04-21 11:50:00,
2013-04-21 08:00:00,32.5,25.5,30.51,NW,315,0.0,0.0,75,0.00,,,0.00,WUHU21623XXSP,2013-04-21 12:00:00,
2013-04-21 08:10:00,33.1,26.0,30.51,NNW,337,0.0,0.0,75,0.00,,,0.00,WUHU21623XXSP,2013-04-21 12:10:00,
2013-04-21 08:20:00,33.6,25.8,30.52,NNW,337,0.0,0.0,73,0.00,,,0.00,WUHU21623XXSP,2013-04-21 12:20:00,
2013-04-21 08:30:00,35.1,27.0,30.52,NNW,337,0.0,0.0,72,0.00,,,0.00,WUHU21623XXSP,2013-04-21 12:30:00,
2013-04-21 08:40:00,36.5,27.3,30.52,NNW,337,0.0,0.0,69,0.00,,,0.00,WUHU21623XXSP,2013-04-21 12:40:00,
2013-04-21 08:50:00,37.9,26.8,30.52,NE,45,0.0,0.0,64,0.00,,,0.00,WUHU21623XXSP,2013-04-21 12:50:00,
2013-04-21 09:00:00,38.5,25.8,30.52,NE,45,0.0,0.0,60,0.00,,,0.00,WUHU21623XXSP,2013-04-21 13:00:00,
2013-04-21 09:10:00,39.7,26.1,30.52,NE,45,0.0,0.0,58,0.00,,,0.00,WUHU21623XXSP,2013-04-21 13:10:00,
2013-04-21 09:20:00,39.6,24.6,30.53,NE,45,0.0,8.7,55,0.00,,,0.00,WUHU21623XXSP,2013-04-21 13:20:00,
2013-04-21 09:30:00,40.8,24.9,30.53,ENE,67,5.1,5.1,53,0.00,,,0.00,WUHU21623XXSP,2013-04-21 13:30:00,
2013-04-21 09:40:00,41.7,23.9,30.53,NE,45,2.7,3.8,49,0.00,,,0.00,WUHU21623XXSP,2013-04-21 13:40:00,
2013-04-21 09:50:00,41.0,22.7,30.53,ENE,67,6.3,6.3,48,0.00,,,0.00,WUHU21623XXSP,2013-04-21 13:50:00,
2013-04-21 10:00:00,40.8,23.0,30.53,ENE,67,4.5,4.5,49,0.00,,,0.00,WUHU21623XXSP,2013-04-21 14:00:00,
2013-04-21 10:10:00,41.4,23.5,30.54,ENE,67,0.0,6.0,49,0.00,,,0.00,WUHU21623XXSP,2013-04-21 14:10:00,
2013-04-21 10:20:00,42.4,24.1,30.54,ESE,112,0.0,4.9,49,0.00,,,0.00,WUHU21623XXSP,2013-04-21 14:20:00,
2013-04-21 10:30:00,42.8,23.9,30.54,NE,45,1.3,2.0,47,0.00,,,0.00,WUHU21623XXSP,2013-04-21 14:30:00,
2013-04-21 10:40:00,42.6,23.2,30.53,ENE,67,2.5,3.8,46,0.00,,,0.00,WUHU21623XXSP,2013-04-21 14:40:00,
2013-04-21 10:50:00,43.0,22.6,30.54,NE,45,4.7,4.7,45,0.00,,,0.00,WUHU21623XXSP,2013-04-21 14:50:00,
2013-04-21 11:00:00,43.7,23.6,30.53,SSE,157,0.0,6.9,45,0.00,,,0.00,WUHU21623XXSP,2013-04-21 15:00:00,
2013-04-21 11:10:00,43.5,23.5,30.53,NNE,22,0.9,7.6,45,0.00,,,0.00,WUHU21623XXSP,2013-04-21 15:10:00,
2013-04-21 11:20:00,44.4,23.7,30.53,ENE,67,0.0,0.0,44,0.00,,,0.00,WUHU21623XXSP,2013-04-21 15:20:00,
2013-04-21 11:30:00,44.8,23.5,30.53,NNE,22,2.7,2.7,43,0.00,,,0.00,WUHU21623XXSP,2013-04-21 15:30:00,
2013-04-21 11:40:00,44.4,22.7,30.53,NE,45,2.0,7.4,42,0.00,,,0.00,WUHU21623XXSP,2013-04-21 15:40:00,
2013-04-21 11:50:00,45.0,23.7,30.53,ENE,67,3.6,5.1,43,0.00,,,0.00,WUHU21623XXSP,2013-04-21 15:50:00,
2013-04-21 12:00:00,45.3,24.0,30.53,NNE,22,0.0,4.9,43,0.00,,,0.00,WUHU21623XXSP,2013-04-21 16:00:00,
2013-04-21 12:10:00,46.2,23.7,30.52,North,0,4.7,4.7,41,0.00,,,0.00,WUHU21623XXSP,2013-04-21 16:10:00,
2013-04-21 12:20:00,46.2,22.5,30.52,ENE,67,6.3,6.3,39,0.00,,,0.00,WUHU21623XXSP,2013-04-21 16:20:00,
2013-04-21 12:30:00,46.8,23.2,30.52,NE,45,3.8,4.0,40,0.00,,,0.00,WUHU21623XXSP,2013-04-21 16:30:00,
2013-04-21 12:40:00,47.3,23.8,30.51,NW,315,5.6,5.6,40,0.00,,,0.00,WUHU21623XXSP,2013-04-21 16:40:00,
2013-04-21 12:50:00,47.5,23.0,30.51,North,0,2.0,5.1,40,0.00,,,0.00,WUHU21623XXSP,2013-04-21 16:50:00,
2013-04-21 13:00:00,48.4,24.5,30.51,ENE,67,0.0,4.3,39,0.00,,,0.00,WUHU21623XXSP,2013-04-21 17:00:00,
2013-04-21 13:10:00,48.6,23.3,30.50,ENE,67,2.9,4.0,38,0.00,,,0.00,WUHU21623XXSP,2013-04-21 17:10:00,
2013-04-21 13:20:00,48.6,23.8,30.49,NE,45,6.7,6.7,38,0.00,,,0.00,WUHU21623XXSP,2013-04-21 17:20:00,
2013-04-21 13:30:00,49.1,24.1,30.49,NW,315,3.1,3.1,39,0.00,,,0.00,WUHU21623XXSP,2013-04-21 17:30:00,
2013-04-21 13:40:00,48.7,22.8,30.49,SSE,157,0.0,6.9,37,0.00,,,0.00,WUHU21623XXSP,2013-04-21 17:40:00,
2013-04-21 13:50:00,49.6,24.2,30.48,ENE,67,0.9,0.9,37,0.00,,,0.00,WUHU21623XXSP,2013-04-21 17:50:00,
2013-04-21 14:00:00,50.5,24.0,30.47,NNE,22,6.9,6.9,36,0.00,,,0.00,WUHU21623XXSP,2013-04-21 18:00:00,
2013-04-21 14:10:00,50.4,23.5,30.47,NNW,337,0.0,6.9,35,0.00,,,0.00,WUHU21623XXSP,2013-04-21 18:10:00,
2013-04-21 14:20:00,51.1,24.8,30.47,NE,45,8.3,8.3,36,0.00,,,0.00,WUHU21623XXSP,2013-04-21 18:20:00,
2013-04-21 14:30:00,51.1,24.3,30.47,NNW,337,3.6,3.6,35,0.00,,,0.00,WUHU21623XXSP,2013-04-21 18:30:00,
2013-04-21 14:40:00,51.4,25.2,30.46,NW,315,0.0,7.4,36,0.00,,,0.00,WUHU21623XXSP,2013-04-21 18:40:00,
2013-04-21 14:50:00,51.4,25.2,30.46,NW,315,0.0,2.0,36,0.00,,,0.00,WUHU21623XXSP,2013-04-21 18:50:00,
2013-04-21 15:00:00,51.6,24.6,30.45,East,90,4.7,7.6,35,0.00,,,0.00,WUHU21623XXSP,2013-04-21 19:00:00,
2013-04-21 15:10:00,51.8,24.6,30.44,NE,45,4.3,4.3,35,0.00,,,0.00,WUHU21623XXSP,2013-04-21 19:10:00,
2013-04-21 15:20:00,51.6,24.0,30.44,ENE,67,5.4,5.4,34,0.00,,,0.00,WUHU21623XXSP,2013-04-21 19:20:00,
2013-04-21 15:30:00,52.0,25.0,30.43,NNW,337,6.7,6.7,35,0.00,,,0.00,WUHU21623XXSP,2013-04-21 19:30:00,
2013-04-21 15:40:00,52.0,25.0,30.44,NE,45,5.4,5.4,35,0.00,,,0.00,WUHU21623XXSP,2013-04-21 19:40:00,
2013-04-21 15:50:00,52.2,24.4,30.43,NE,45,0.0,1.6,34,0.00,,,0.00,WUHU21623XXSP,2013-04-21 19:50:00,
2013-04-21 16:00:00,52.7,25.6,30.43,NE,45,1.3,7.6,35,0.00,,,0.00,WUHU21623XXSP,2013-04-21 20:00:00,
2013-04-21 16:10:00,53.2,25.4,30.42,NE,45,1.1,5.8,34,0.00,,,0.00,WUHU21623XXSP,2013-04-21 20:10:00,
2013-04-21 16:20:00,53.2,26.1,30.41,ENE,67,3.6,3.6,35,0.00,,,0.00,WUHU21623XXSP,2013-04-21 20:20:00,
2013-04-21 16:30:00,53.4,24.9,30.41,ENE,67,0.0,2.0,33,0.00,,,0.00,WUHU21623XXSP,2013-04-21 20:30:00,
2013-04-21 16:40:00,53.2,24.0,30.41,NE,45,1.8,5.1,32,0.00,,,0.00,WUHU21623XXSP,2013-04-21 20:40:00,
2013-04-21 16:50:00,53.8,24.5,30.41,NE,45,1.8,4.3,32,0.00,,,0.00,WUHU21623XXSP,2013-04-21 20:50:00,
2013-04-21 17:00:00,54.0,24.0,30.40,ENE,67,3.4,6.7,31,0.00,,,0.00,WUHU21623XXSP,2013-04-21 21:00:00,
2013-04-21 17:10:00,54.0,24.0,30.40,NE,45,4.7,7.4,31,0.00,,,0.00,WUHU21623XXSP,2013-04-21 21:10:00,
2013-04-21 17:20:00,54.3,24.9,30.40,NE,45,0.0,4.7,32,0.00,,,0.00,WUHU21623XXSP,2013-04-21 21:20:00,
2013-04-21 17:30:00,54.7,25.3,30.40,NNW,337,0.0,4.0,32,0.00,,,0.00,WUHU21623XXSP,2013-04-21 21:30:00,
2013-04-21 17:40:00,55.4,25.1,30.40,NE,45,2.0,6.9,31,0.00,,,0.00,WUHU21623XXSP,2013-04-21 21:40:00,
2013-04-21 17:50:00,55.8,24.9,30.40,NE,45,2.2,2.2,30,0.00,,,0.00,WUHU21623XXSP,2013-04-21 21:50:00,
2013-04-21 18:00:00,55.4,24.4,30.39,NE,45,4.5,6.0,30,0.00,,,0.00,WUHU21623XXSP,2013-04-21 22:00:00,
2013-04-21 18:10:00,55.2,25.0,30.40,NE,45,0.0,6.3,31,0.00,,,0.00,WUHU21623XXSP,2013-04-21 22:10:00,
2013-04-21 18:20:00,55.8,25.5,30.40,ENE,67,0.0,0.0,31,0.00,,,0.00,WUHU21623XXSP,2013-04-21 22:20:00,
2013-04-21 18:30:00,55.4,25.1,30.39,NE,45,0.0,0.0,31,0.00,,,0.00,WUHU21623XXSP,2013-04-21 22:30:00,
2013-04-21 18:40:00,55.0,24.8,30.39,ENE,67,0.0,2.2,31,0.00,,,0.00,WUHU21623XXSP,2013-04-21 22:40:00,
2013-04-21 18:50:00,54.9,25.4,30.39,NE,45,0.0,0.0,32,0.00,,,0.00,WUHU21623XXSP,2013-04-21 22:50:00,
2013-04-21 19:00:00,54.5,25.1,30.39,ENE,67,0.0,3.4,32,0.00,,,0.00,WUHU21623XXSP,2013-04-21 23:00:00,
2013-04-21 19:10:00,54.0,24.7,30.39,NE,45,1.1,2.9,32,0.00,,,0.00,WUHU21623XXSP,2013-04-21 23:10:00,
2013-04-21 19:20:00,53.4,24.9,30.39,NE,45,0.0,0.0,33,0.00,,,0.00,WUHU21623XXSP,2013-04-21 23:20:00,
2013-04-21 19:30:00,53.2,24.7,30.39,NE,45,0.0,0.0,33,0.00,,,0.00,WUHU21623XXSP,2013-04-21 23:30:00,
2013-04-21 19:40:00,52.9,25.1,30.40,SE,135,0.0,0.0,34,0.00,,,0.00,WUHU21623XXSP,2013-04-21 23:40:00,
2013-04-21 19:50:00,52.7,24.9,30.40,ESE,112,7.2,7.2,34,0.00,,,0.00,WUHU21623XXSP,2013-04-21 23:50:00,
2013-04-21 20:00:00,52.3,24.6,30.41,ESE,112,0.0,0.0,34,0.00,,,0.00,WUHU21623XXSP,2013-04-22 00:00:00,
2013-04-21 20:10:00,51.8,24.1,30.41,SE,135,0.0,0.0,34,0.00,,,0.00,WUHU21623XXSP,2013-04-22 00:10:00,
2013-04-21 20:20:00,51.4,23.8,30.41,SE,135,0.0,0.0,34,0.00,,,0.00,WUHU21623XXSP,2013-04-22 00:20:00,
2013-04-21 20:30:00,50.7,22.5,30.42,ESE,112,0.0,0.0,33,0.00,,,0.00,WUHU21623XXSP,2013-04-22 00:30:00,
2013-04-21 20:40:00,50.4,22.8,30.41,ESE,112,0.0,0.0,34,0.00,,,0.00,WUHU21623XXSP,2013-04-22 00:40:00,
2013-04-21 20:50:00,49.8,22.3,30.41,ESE,112,0.0,0.0,34,0.00,,,0.00,WUHU21623XXSP,2013-04-22 00:50:00,
2013-04-21 21:00:00,49.6,22.2,30.41,SE,135,0.0,0.0,34,0.00,,,0.00,WUHU21623XXSP,2013-04-22 01:00:00,
2013-04-21 21:10:00,49.3,21.9,30.42,SE,135,0.0,2.5,34,0.00,,,0.00,WUHU21623XXSP,2013-04-22 01:10:00,
2013-04-21 21:20:00,48.9,22.3,30.42,ESE,112,0.0,2.9,35,0.00,,,0.00,WUHU21623XXSP,2013-04-22 01:20:00,
2013-04-21 21:30:00,48.7,22.1,30.42,ESE,112,0.0,0.0,35,0.00,,,0.00,WUHU21623XXSP,2013-04-22 01:30:00,
2013-04-21 21:40:00,48.4,21.8,30.43,ESE,112,0.0,0.0,35,0.00,,,0.00,WUHU21623XXSP,2013-04-22 01:40:00,
2013-04-21 21:50:00,48.0,22.2,30.43,SE,135,0.0,0.0,36,0.00,,,0.00,WUHU21623XXSP,2013-04-22 01:50:00,
2013-04-21 22:00:00,48.0,22.2,30.43,SSE,157,0.0,0.0,36,0.00,,,0.00,WUHU21623XXSP,2013-04-22 02:00:00,
2013-04-21 22:10:00,47.8,22.7,30.44,ENE,67,0.0,0.0,37,0.00,,,0.00,WUHU21623XXSP,2013-04-22 02:10:00,
2013-04-21 22:20:00,47.7,22.5,30.44,ESE,112,0.0,0.0,37,0.00,,,0.00,WUHU21623XXSP,2013-04-22 02:20:00,
2013-04-21 22:30:00,47.3,22.8,30.43,ESE,112,0.0,0.0,38,0.00,,,0.00,WUHU21623XXSP,2013-04-22 02:30:00,
2013-04-21 22:40:00,47.1,23.3,30.44,SSE,157,0.0,0.0,39,0.00,,,0.00,WUHU21623XXSP,2013-04-22 02:40:00,
2013-04-21 22:50:00,46.9,23.8,30.44,SSE,157,0.0,0.0,40,0.00,,,0.00,WUHU21623XXSP,2013-04-22 02:50:00,
2013-04-21 23:00:00,46.8,23.7,30.43,ESE,112,0.0,0.0,40,0.00,,,0.00,WUHU21623XXSP,2013-04-22 03:00:00,
2013-04-21 23:10:00,46.9,23.8,30.43,East,90,0.0,7.4,40,0.00,,,0.00,WUHU21623XXSP,2013-04-22 03:10:00,
2013-04-21 23:20:00,46.6,23.5,30.43,South,180,0.0,4.5,40,0.00,,,0.00,WUHU21623XXSP,2013-04-22 03:20:00,
2013-04-21 23:30:00,46.2,23.7,30.43,SSE,157,0.0,0.0,41,0.00,,,0.00,WUHU21623XXSP,2013-04-22 03:30:00,
2013-04-21 23:40:00,46.0,23.6,30.43,SSE,157,0.0,0.0,41,0.00,,,0.00,WUHU21623XXSP,2013-04-22 03:40:00,
2013-04-21 23:50:00,46.0,23.6,30.43,SSE,157,0.0,0.0,41,0.00,,,0.00,WUHU21623XXSP,2013-04-22 03:50:00,